createdAt,value
2022-07-29T00:00:22.180Z,99261.84
2022-07-29T00:03:07.693Z,99258.44
2022-07-29T00:13:36.836Z,99251.16
2022-07-29T00:17:14.434Z,99249.28
2022-07-29T00:21:37.860Z,99254.84
2022-07-29T00:24:41.645Z,99246.16
2022-07-29T00:28:05.923Z,99267.47
2022-07-29T00:30:56.349Z,99265.50
2022-07-29T00:34:05.253Z,99249.31
2022-07-29T00:37:31.830Z,99261.19
2022-07-29T00:40:18.643Z,99254.13
2022-07-29T00:43:06.806Z,99255.09
2022-07-29T00:45:41.679Z,99245.16
2022-07-29T00:48:15.092Z,99240.53
2022-07-29T00:50:56.409Z,99254.09
2022-07-29T00:53:42.697Z,99240.75
2022-07-29T00:56:36.420Z,99245.59
2022-07-29T00:59:18.414Z,99241.50
2022-07-29T01:02:18.912Z,99240.72
2022-07-29T01:04:54.829Z,99236.81
2022-07-29T01:07:40.331Z,99230.75
2022-07-29T01:14:33.830Z,99238.53
2022-07-29T01:17:53.516Z,99237.09
2022-07-29T01:31:13.412Z,99233.84
2022-07-29T01:34:45.161Z,99219.56
2022-07-29T01:37:42.729Z,99216.81
2022-07-29T01:40:56.107Z,99221.66
2022-07-29T01:43:53.705Z,99215.09
2022-07-29T01:46:36.254Z,99219.66
2022-07-29T01:49:47.919Z,99220.16
2022-07-29T01:52:33.037Z,99213.13
2022-07-29T01:55:19.236Z,99210.63
2022-07-29T01:58:01.403Z,99213.34
2022-07-29T02:00:37.270Z,99206.13
2022-07-29T02:10:59.580Z,99213.69
2022-07-29T02:25:37.604Z,99198.19
2022-07-29T02:28:34.311Z,99204.97
2022-07-29T02:35:10.047Z,99207.41
2022-07-29T02:41:30.926Z,99212.75
2022-07-29T02:44:32.610Z,99198.94
2022-07-29T02:47:45.910Z,99211.78
2022-07-29T02:54:28.863Z,99206.00
2022-07-29T02:57:54.104Z,99217.13
2022-07-29T03:00:29.667Z,99210.81
2022-07-29T03:03:26.678Z,99204.97
2022-07-29T03:06:28.192Z,99200.41
2022-07-29T03:09:13.588Z,99206.66
2022-07-29T03:11:50.693Z,99214.13
2022-07-29T03:14:28.077Z,99210.78
2022-07-29T03:20:35.281Z,99217.00
2022-07-29T03:23:35.231Z,99211.63
2022-07-29T03:26:11.921Z,99212.53
2022-07-29T03:29:01.638Z,99220.78
2022-07-29T03:32:25.251Z,99215.69
2022-07-29T03:34:58.770Z,99203.81
2022-07-29T03:40:50.331Z,99206.38
2022-07-29T03:43:49.816Z,99203.97
2022-07-29T03:46:35.675Z,99211.22
2022-07-29T03:49:45.078Z,99207.78
2022-07-29T03:53:05.568Z,99221.09
2022-07-29T03:55:46.453Z,99216.47
2022-07-29T03:58:41.928Z,99218.47
2022-07-29T04:01:21.977Z,99216.34
2022-07-29T04:04:29.257Z,99208.84
2022-07-29T04:11:28.335Z,99212.00
2022-07-29T04:14:09.228Z,99208.66
2022-07-29T04:16:43.161Z,99203.09
2022-07-29T04:19:18.333Z,99209.66
2022-07-29T04:25:10.038Z,99210.00
2022-07-29T04:28:03.359Z,99208.56
2022-07-29T04:31:33.735Z,99212.69
2022-07-29T04:34:54.097Z,99213.25
2022-07-29T04:37:26.507Z,99219.78
2022-07-29T04:40:15.884Z,99213.25
2022-07-29T04:42:58.673Z,99216.41
2022-07-29T04:45:34.477Z,99214.00
2022-07-29T04:51:49.026Z,99201.78
2022-07-29T04:58:13.504Z,99204.59
2022-07-29T05:00:54.548Z,99217.84
2022-07-29T05:03:26.660Z,99215.16
2022-07-29T05:05:58.421Z,99222.84
2022-07-29T05:08:28.049Z,99225.38
2022-07-29T05:11:11.806Z,99225.09
2022-07-29T05:13:54.897Z,99224.28
2022-07-29T05:16:32.663Z,99235.38
2022-07-29T05:20:00.376Z,99225.16
2022-07-29T05:22:59.339Z,99229.41
2022-07-29T05:25:40.793Z,99229.03
2022-07-29T05:28:17.271Z,99227.66
2022-07-29T05:30:58.121Z,99230.19
2022-07-29T05:33:34.969Z,99230.09
2022-07-29T05:36:17.627Z,99236.47
2022-07-29T05:38:55.447Z,99225.72
2022-07-29T05:41:43.451Z,99227.28
2022-07-29T05:45:14.218Z,99235.94
2022-07-29T05:48:07.450Z,99234.72
2022-07-29T05:50:37.102Z,99224.94
2022-07-29T05:57:54.842Z,99223.88
2022-07-29T06:00:45.002Z,99211.16
2022-07-29T06:03:20.329Z,99214.47
2022-07-29T06:06:27.671Z,99219.44
2022-07-29T06:09:12.590Z,99218.63
2022-07-29T06:11:46.311Z,99216.19
2022-07-29T06:14:59.998Z,99219.50
2022-07-29T06:17:38.257Z,99228.19
2022-07-29T06:20:35.799Z,99232.72
2022-07-29T06:51:39.496Z,99246.78
2022-07-29T06:54:10.850Z,99238.31
2022-07-29T07:22:39.048Z,99245.75
2022-07-29T07:53:27.946Z,99248.28
2022-07-29T07:56:12.481Z,99242.84
2022-07-29T07:59:16.051Z,99239.94
2022-07-29T08:01:55.764Z,99241.97
2022-07-29T08:04:55.740Z,99246.09
2022-07-29T08:07:33.298Z,99244.34
2022-07-29T08:10:38.924Z,99248.38
2022-07-29T08:16:41.006Z,99243.78
2022-07-29T08:22:48.683Z,99239.09
2022-07-29T08:29:27.031Z,99238.50
2022-07-29T08:32:54.464Z,99238.25
2022-07-29T08:35:37.309Z,99231.72
2022-07-29T08:41:44.661Z,99237.06
2022-07-29T08:45:00.845Z,99239.78
2022-07-29T08:47:55.251Z,99234.44
2022-07-29T08:51:04.322Z,99234.44
2022-07-29T08:57:37.629Z,99230.25
2022-07-29T09:00:31.666Z,99232.47
2022-07-29T09:03:10.203Z,99226.84
2022-07-29T09:06:03.027Z,99234.56
2022-07-29T09:08:43.104Z,99226.13
2022-07-29T09:16:52.371Z,99225.22
2022-07-29T09:23:36.474Z,99216.50
2022-07-29T09:33:02.372Z,99210.72
2022-07-29T10:04:08.514Z,99183.06
2022-07-29T10:12:07.413Z,99175.09
2022-07-29T10:30:04.897Z,99180.91
2022-07-29T10:33:23.770Z,99174.19
2022-07-29T10:41:51.007Z,99181.47
2022-07-29T10:44:37.612Z,99166.06
2022-07-29T11:23:34.011Z,99135.66
2022-07-29T11:38:36.338Z,99126.78
2022-07-29T11:42:13.657Z,99128.34
2022-07-29T11:45:43.639Z,99116.41
2022-07-29T11:52:03.391Z,99117.88
2022-07-29T12:05:52.116Z,99107.03
2022-07-29T12:08:23.225Z,99115.03
2022-07-29T12:11:04.525Z,99115.84
2022-07-29T12:19:01.966Z,99107.34
2022-07-29T12:35:00.621Z,99086.19
2022-07-29T12:37:44.121Z,99088.44
2022-07-29T12:58:16.747Z,99076.53
2022-07-29T13:01:47.429Z,99075.84
2022-07-29T13:32:52.794Z,99047.88
2022-07-29T13:49:05.156Z,99029.63
2022-07-29T14:41:57.883Z,98991.31
2022-07-29T14:44:33.736Z,98978.59
2022-07-29T14:53:02.672Z,98983.41
2022-07-29T16:53:33.070Z,98941.38
2022-07-29T17:43:22.831Z,98952.47
2022-07-29T17:47:38.442Z,98961.16
2022-07-29T18:47:13.090Z,99003.22
2022-07-29T18:54:21.694Z,99017.88
2022-07-29T18:57:53.314Z,99023.69
2022-07-29T19:00:07.217Z,99025.44
2022-07-29T19:02:45.770Z,99030.47
2022-07-29T19:05:50.373Z,99023.19
2022-07-29T19:09:04.849Z,99030.25
2022-07-29T19:16:13.760Z,99044.47
2022-07-29T19:19:11.150Z,99046.56
2022-07-29T19:21:51.644Z,99034.47
2022-07-29T19:24:26.593Z,99042.50
2022-07-29T19:27:01.845Z,99048.75
2022-07-29T19:29:47.599Z,99043.03
2022-07-29T19:32:25.049Z,99039.56
2022-07-29T19:35:24.645Z,99042.47
2022-07-29T19:38:11.668Z,99033.25
2022-07-29T19:40:47.892Z,99034.94
2022-07-29T19:43:50.888Z,99030.25
2022-07-29T19:46:15.225Z,99020.69
2022-07-29T19:48:45.867Z,99021.88
2022-07-29T19:51:21.316Z,99023.03
2022-07-29T19:54:01.594Z,99020.91
2022-07-29T19:56:45.392Z,99018.38
2022-07-29T19:59:17.424Z,99027.94
2022-07-29T20:02:00.393Z,99014.69
2022-07-29T20:04:29.645Z,99016.47
2022-07-29T20:07:03.752Z,99012.47
2022-07-29T20:09:33.659Z,99008.47
2022-07-29T20:12:04.962Z,99016.50
2022-07-29T20:14:35.431Z,99024.75
2022-07-29T20:17:13.662Z,99018.44
2022-07-29T20:19:46.306Z,99025.38
2022-07-29T20:22:21.550Z,99015.47
2022-07-29T20:24:56.253Z,99019.19
2022-07-29T20:27:25.632Z,99019.59
2022-07-29T20:29:55.094Z,99019.56
2022-07-29T20:32:23.847Z,99028.38
2022-07-29T20:34:53.890Z,99032.59
2022-07-29T20:37:24.900Z,99023.22
2022-07-29T20:39:54.055Z,99017.03
2022-07-29T20:42:23.136Z,99019.47
2022-07-29T20:44:54.203Z,99024.56
2022-07-29T20:47:27.072Z,99026.63
2022-07-29T20:49:58.491Z,99031.22
2022-07-29T20:52:31.657Z,99040.91
2022-07-29T20:55:04.049Z,99042.34
2022-07-29T20:57:40.252Z,99044.41
2022-07-29T21:01:05.255Z,99048.00
2022-07-29T21:03:37.084Z,99042.78
2022-07-29T21:06:09.437Z,99040.63
2022-07-29T21:09:01.943Z,99039.50
2022-07-29T21:11:44.038Z,99033.19
2022-07-29T21:14:20.825Z,99042.38
2022-07-29T21:16:50.572Z,99035.88
2022-07-29T21:19:24.567Z,99030.81
2022-07-29T21:21:56.815Z,99034.69
2022-07-29T21:24:38.836Z,99030.19
2022-07-29T21:27:24.998Z,99037.03
2022-07-29T21:29:54.655Z,99050.34
2022-07-29T21:32:27.554Z,99044.53
2022-07-29T21:34:59.949Z,99045.41
2022-07-29T21:37:29.021Z,99056.59
2022-07-29T21:40:00.256Z,99068.94
2022-07-29T21:42:30.217Z,99070.13
2022-07-29T21:44:59.425Z,99067.06
2022-07-29T21:47:29.983Z,99075.09
2022-07-29T21:50:00.858Z,99083.38
2022-07-29T21:52:29.618Z,99079.78
2022-07-29T21:55:08.247Z,99094.25
2022-07-29T21:57:39.732Z,99101.91
2022-07-29T22:00:14.659Z,99118.00
2022-07-29T22:02:43.556Z,99140.69
2022-07-29T22:05:12.638Z,99130.31
2022-07-29T22:07:54.429Z,99119.78
2022-07-29T22:10:28.042Z,99149.31
2022-07-29T22:12:58.318Z,99154.84
2022-07-29T22:15:33.592Z,99160.13
2022-07-29T22:18:05.162Z,99159.19
2022-07-29T22:20:34.035Z,99162.56
2022-07-29T22:23:03.912Z,99174.53
2022-07-29T22:25:34.999Z,99166.06
2022-07-29T22:28:03.828Z,99172.63
2022-07-29T22:30:32.703Z,99177.38
2022-07-29T22:33:04.463Z,99172.53
2022-07-29T22:35:33.402Z,99167.41
2022-07-29T22:38:02.311Z,99164.47
2022-07-29T22:40:33.791Z,99155.50
2022-07-29T22:43:02.766Z,99153.91
2022-07-29T22:45:31.441Z,99152.31
2022-07-29T22:48:01.731Z,99148.41
2022-07-29T22:50:32.226Z,99142.63
2022-07-29T22:53:00.944Z,99141.63
2022-07-29T22:55:29.738Z,99127.50
2022-07-29T22:58:04.333Z,99129.81
2022-07-29T23:00:33.001Z,99125.13
2022-07-29T23:03:02.082Z,99120.38
2022-07-29T23:05:31.207Z,99116.19
2022-07-29T23:07:59.627Z,99121.84
2022-07-29T23:10:30.370Z,99114.00
2022-07-29T23:13:14.030Z,99102.38
2022-07-29T23:15:50.968Z,99094.06
2022-07-29T23:18:20.773Z,99090.81
2022-07-29T23:20:49.707Z,99080.13
2022-07-29T23:23:23.088Z,99078.66
2022-07-29T23:25:51.783Z,99071.19
2022-07-29T23:28:22.177Z,99068.09
2022-07-29T23:30:56.234Z,99049.53
2022-07-29T23:33:27.215Z,99053.44
2022-07-29T23:35:58.419Z,99047.66
2022-07-29T23:38:31.465Z,99043.41
2022-07-29T23:41:01.737Z,99031.34
2022-07-29T23:43:32.332Z,99034.16
2022-07-29T23:46:01.365Z,99030.88
2022-07-29T23:48:33.420Z,99013.97
2022-07-29T23:51:02.066Z,99005.31
2022-07-29T23:53:30.666Z,99012.56
2022-07-29T23:55:59.590Z,99009.91
2022-07-29T23:58:28.455Z,99009.47
